Time;durP1;ratioP1;P1;durP2;ratioP2;P2;SDS_P1;SDS_P2;PMS_P1;PMS_P2;Temp;Humidity;BMP_temperature;BMP_pressure;BME280_temperature;BME280_humidity;BME280_pressure;Samples;Min_cycle;Max_cycle;Signal;HPM_P1;HPM_P2
2021/11/27 00:02:12;;;;;;;57.50;31.82;;;;;;;2.18;82.36;98721.05;1726709;80;21067;-71
2021/11/27 00:04:38;;;;;;;61.18;32.20;;;;;;;2.19;82.37;98724.44;1727165;81;21102;-71
2021/11/27 00:07:06;;;;;;;54.20;30.08;;;;;;;2.21;82.41;98718.45;1728810;80;22096;-70
2021/11/27 00:09:33;;;;;;;55.63;31.10;;;;;;;2.21;82.38;98717.62;1726428;81;21473;-71
2021/11/27 00:12:01;;;;;;;57.90;31.45;;;;;;;2.22;82.45;98715.05;1727944;81;21842;-71
2021/11/27 00:14:28;;;;;;;64.95;33.10;;;;;;;2.24;82.44;98717.14;1726169;80;29365;-71
2021/11/27 00:16:54;;;;;;;;;;;;;;;2.24;82.44;98712.05;1744100;81;21488;-71
2021/11/27 00:19:21;;;;;;;62.73;32.98;;;;;;;2.22;82.41;98707.40;1730664;80;25172;-71
2021/11/27 00:21:47;;;;;;;67.85;32.88;;;;;;;2.20;82.31;98709.12;1750654;80;21059;-71
2021/11/27 00:24:13;;;;;;;62.53;32.25;;;;;;;2.17;82.31;98699.40;1755961;80;21039;-71
2021/11/27 00:26:42;;;;;;;62.08;31.97;;;;;;;2.15;82.32;98695.59;1745386;81;22134;-71
2021/11/27 00:29:09;;;;;;;58.75;30.75;;;;;;;2.15;82.37;98699.84;1730123;80;21088;-70
2021/11/27 00:31:38;;;;;;;52.43;29.92;;;;;;;2.15;82.39;98697.30;1741932;80;21145;-70
2021/11/27 00:34:04;;;;;;;55.60;29.07;;;;;;;2.14;82.41;98693.06;1734091;81;20959;-70
2021/11/27 00:36:31;;;;;;;57.45;31.37;;;;;;;2.14;82.45;98691.36;1783461;79;21344;-71
2021/11/27 00:38:58;;;;;;;53.52;30.00;;;;;;;2.15;82.47;98689.22;1761913;79;21819;-71
2021/11/27 00:41:26;;;;;;;56.30;30.35;;;;;;;2.16;82.47;98689.63;1739880;81;21542;-71
2021/11/27 00:43:53;;;;;;;55.33;30.35;;;;;;;2.15;82.47;98687.95;1763480;79;21338;-70
2021/11/27 00:46:21;;;;;;;56.60;30.37;;;;;;;2.14;82.46;98687.53;1740985;79;20963;-70
2021/11/27 00:48:47;;;;;;;50.05;29.90;;;;;;;2.12;82.43;98687.14;1750212;79;21019;-70
2021/11/27 00:51:19;;;;;;;60.85;32.88;;;;;;;2.12;82.48;98682.88;1729825;79;21691;-71
2021/11/27 00:53:46;;;;;;;55.50;30.05;;;;;;;2.14;82.52;98685.41;1764065;79;21480;-71
2021/11/27 00:56:14;;;;;;;60.28;32.42;;;;;;;2.14;82.54;98679.88;1757550;79;21462;-71
2021/11/27 00:58:43;;;;;;;62.23;32.55;;;;;;;2.15;82.53;98684.55;1748386;80;21475;-71
2021/11/27 01:01:14;;;;;;;57.10;31.50;;;;;;;2.14;82.51;98682.44;1744160;79;21491;-71
2021/11/27 01:03:44;;;;;;;61.37;36.58;;;;;;;2.13;82.48;98678.62;1758615;79;21055;-71
2021/11/27 01:06:13;;;;;;;62.10;31.97;;;;;;;2.10;82.48;98682.06;1748791;79;20892;-71
2021/11/27 01:08:41;;;;;;;57.25;31.05;;;;;;;2.08;82.48;98679.96;1764559;79;21525;-71
2021/11/27 01:11:18;;;;;;;51.58;29.67;;;;;;;2.08;82.53;98686.80;1747406;79;21539;-71
2021/11/27 01:13:48;;;;;;;61.83;30.65;;;;;;;2.10;82.59;98686.31;1729609;79;21097;-71
2021/11/27 01:16:18;;;;;;;59.40;31.02;;;;;;;2.10;82.63;98686.31;1772647;79;21459;-70
2021/11/27 01:18:47;;;;;;;59.27;32.00;;;;;;;2.11;82.58;98685.45;1746531;79;21074;-71
2021/11/27 01:21:18;;;;;;;56.33;31.37;;;;;;;2.12;82.65;98687.14;1735234;80;21059;-70
2021/11/27 01:23:46;;;;;;;57.62;31.33;;;;;;;2.16;82.67;98687.52;1761063;79;21059;-70
2021/11/27 01:26:13;;;;;;;55.90;30.90;;;;;;;2.15;82.64;98684.12;1754228;79;21319;-70
2021/11/27 01:28:39;;;;;;;57.50;31.33;;;;;;;2.15;82.62;98679.02;1744629;80;28246;-70
2021/11/27 01:31:06;;;;;;;;;;;;;;;2.15;82.65;98679.45;1747778;79;21689;-70
2021/11/27 01:33:33;;;;;;;55.92;29.75;;;;;;;2.15;82.69;98682.84;1718751;80;20492;-71
2021/11/27 01:36:03;;;;;;;57.17;31.52;;;;;;;2.15;82.64;98679.02;1735275;81;21394;-71
2021/11/27 01:38:29;;;;;;;60.12;31.75;;;;;;;2.15;82.68;98679.02;1755443;81;21548;-71
2021/11/27 01:40:56;;;;;;;57.55;31.00;;;;;;;2.17;82.69;98684.09;1733598;81;20901;-71
2021/11/27 01:43:23;;;;;;;;;;;;;;;2.18;82.71;98677.70;1732601;81;21107;-70
2021/11/27 01:45:51;;;;;;;55.33;29.10;;;;;;;2.19;82.74;98673.45;1745348;81;20256;-70
2021/11/27 01:48:21;;;;;;;58.02;31.65;;;;;;;2.18;82.69;98673.04;1733753;81;21736;-71
2021/11/27 01:50:55;;;;;;;54.20;30.32;;;;;;;2.18;82.70;98671.77;1724155;81;20968;-71
2021/11/27 01:53:23;;;;;;;55.85;29.52;;;;;;;2.17;82.71;98667.09;1731360;81;21611;-71
2021/11/27 01:55:55;;;;;;;59.83;30.82;;;;;;;2.18;82.69;98662.84;1724460;81;21664;-70
2021/11/27 01:58:23;;;;;;;58.33;30.37;;;;;;;2.18;82.67;98662.84;1724371;81;20936;-70
2021/11/27 02:00:58;;;;;;;56.40;30.72;;;;;;;2.16;82.63;98662.86;1751921;81;20908;-70
2021/11/27 02:03:25;;;;;;;61.68;32.30;;;;;;;2.12;82.58;98658.67;1730452;80;20959;-70
2021/11/27 02:05:54;;;;;;;58.63;31.65;;;;;;;2.10;82.65;98662.94;1732141;81;20933;-70
2021/11/27 02:08:25;;;;;;;57.27;30.23;;;;;;;2.13;82.75;98659.51;1744568;81;20956;-70
2021/11/27 02:10:52;;;;;;;57.80;30.35;;;;;;;2.12;82.74;98657.39;1727174;82;21342;-70
2021/11/27 02:13:19;;;;;;;55.03;31.15;;;;;;;2.13;82.69;98662.90;1720298;83;20910;-71
2021/11/27 02:15:46;;;;;;;60.38;32.03;;;;;;;2.09;82.57;98652.77;1736829;81;21063;-71
2021/11/27 02:18:13;;;;;;;65.45;34.08;;;;;;;2.08;82.70;98651.11;1735878;81;26983;-70
2021/11/27 02:20:44;;;;;;;65.40;35.23;;;;;;;2.10;82.75;98653.17;1726993;81;21061;-70
2021/11/27 02:23:11;;;;;;;64.65;33.70;;;;;;;2.10;82.77;98654.02;1692840;83;21494;-70
2021/11/27 02:25:37;;;;;;;66.35;32.13;;;;;;;2.12;82.78;98652.72;1740493;81;21059;-70
2021/11/27 02:28:04;;;;;;;58.13;30.92;;;;;;;2.11;82.79;98650.61;1731034;81;21067;-70
2021/11/27 02:30:31;;;;;;;56.53;31.52;;;;;;;2.13;82.82;98646.33;1753629;81;21124;-70
2021/11/27 02:32:57;;;;;;;56.23;30.52;;;;;;;2.13;82.82;98647.60;1723427;81;21307;-70
2021/11/27 02:35:24;;;;;;;62.20;32.58;;;;;;;2.04;82.82;98627.80;1742278;81;21051;-71
2021/11/27 02:37:50;;;;;;;62.35;33.15;;;;;;;2.13;82.81;98645.05;1719101;81;21092;-71
2021/11/27 02:40:17;;;;;;;61.65;32.50;;;;;;;2.15;82.83;98652.69;1748472;81;21059;-71
2021/11/27 02:42:43;;;;;;;61.02;33.63;;;;;;;2.15;82.82;98647.16;1751584;81;21055;-71
2021/11/27 02:45:11;;;;;;;63.73;33.18;;;;;;;2.15;82.84;98649.70;1699906;82;21060;-71
2021/11/27 02:47:39;;;;;;;60.75;32.95;;;;;;;2.16;82.86;98651.39;1721354;81;20873;-71
2021/11/27 02:50:08;;;;;;;71.02;34.98;;;;;;;2.17;82.86;98649.25;1737178;81;20932;-71
2021/11/27 02:52:35;;;;;;;63.60;32.65;;;;;;;2.16;82.87;98646.72;1737668;81;21007;-70
2021/11/27 02:55:01;;;;;;;57.70;31.93;;;;;;;2.15;82.81;98647.58;1716779;82;21112;-70
2021/11/27 02:57:30;;;;;;;64.62;33.98;;;;;;;2.13;82.85;98632.73;1737160;81;21083;-70
2021/11/27 02:59:58;;;;;;;52.65;30.60;;;;;;;2.11;82.79;98640.41;1721059;81;21507;-70
2021/11/27 03:02:25;;;;;;;63.58;32.73;;;;;;;2.08;82.78;98637.09;1742491;81;21029;-71
2021/11/27 03:04:52;;;;;;;60.67;33.08;;;;;;;2.08;82.82;98644.27;1733887;81;21079;-71
2021/11/27 03:07:18;;;;;;;65.10;32.90;;;;;;;2.08;82.91;98641.73;1726520;81;21117;-70
2021/11/27 03:09:45;;;;;;;66.75;34.65;;;;;;;2.10;82.93;98645.53;1737770;81;21063;-70
2021/11/27 03:12:12;;;;;;;61.90;33.55;;;;;;;2.11;82.96;98642.95;1736169;81;20865;-71
2021/11/27 03:14:40;;;;;;;62.62;33.78;;;;;;;2.12;82.90;98639.98;1747047;81;21059;-71
2021/11/27 03:17:06;;;;;;;67.70;36.25;;;;;;;2.10;82.87;98645.53;1730635;81;21087;-70
2021/11/27 03:19:35;;;;;;;;;;;;;;;2.09;82.91;98637.47;1743452;81;21123;-70
2021/11/27 03:22:02;;;;;;;65.57;34.20;;;;;;;2.09;82.95;98641.30;1724382;81;20149;-70
2021/11/27 03:24:29;;;;;;;67.65;35.30;;;;;;;2.09;82.95;98640.86;1751686;81;21052;-71
2021/11/27 03:26:56;;;;;;;64.80;33.30;;;;;;;2.08;82.86;98632.80;1751426;81;20924;-71
2021/11/27 03:29:25;;;;;;;64.47;32.88;;;;;;;2.08;82.92;98631.99;1755937;81;20912;-70
2021/11/27 03:32:01;;;;;;;58.95;32.73;;;;;;;2.05;82.93;98634.15;1756130;81;20968;-70
2021/11/27 03:34:27;;;;;;;60.70;33.30;;;;;;;2.05;82.92;98638.41;1731001;80;20950;-70
2021/11/27 03:36:57;;;;;;;72.67;34.80;;;;;;;2.05;82.94;98648.17;1744573;80;20921;-70
2021/11/27 03:39:23;;;;;;;;;;;;;;;2.04;82.99;98638.84;1736622;80;20948;-70
2021/11/27 03:41:49;;;;;;;64.42;33.67;;;;;;;2.04;83.02;98645.20;1733304;80;20223;-71
2021/11/27 03:44:15;;;;;;;67.67;33.70;;;;;;;2.04;82.98;98639.27;1753275;80;21118;-71
2021/11/27 03:46:42;;;;;;;69.37;34.65;;;;;;;2.03;82.98;98640.13;1772616;80;21051;-71
2021/11/27 03:49:08;;;;;;;58.33;32.78;;;;;;;2.02;82.95;98641.84;1752365;80;21111;-71
2021/11/27 03:51:35;;;;;;;63.13;32.00;;;;;;;2.01;82.92;98645.68;1759225;80;21085;-71
2021/11/27 03:54:02;;;;;;;61.98;33.55;;;;;;;2.00;82.99;98641.02;1743734;80;21098;-71
2021/11/27 03:56:29;;;;;;;;;;;;;;;2.00;83.07;98643.56;1746070;80;21016;-71
2021/11/27 03:58:59;;;;;;;66.07;31.55;;;;;;;2.01;83.08;98640.16;1751133;80;20165;-71
2021/11/27 04:01:26;;;;;;;67.40;33.40;;;;;;;1.98;83.00;98630.84;1748181;80;20913;-71
2021/11/27 04:03:55;;;;;;;64.20;33.70;;;;;;;1.97;82.98;98639.35;1748600;80;20937;-71
2021/11/27 04:06:22;;;;;;;64.90;34.27;;;;;;;1.96;83.01;98642.77;1758612;80;20991;-71
2021/11/27 04:08:47;;;;;;;;;;;;;;;1.97;83.05;98638.08;1744772;80;21091;-71
2021/11/27 04:11:15;;;;;;;63.00;33.70;;;;;;;1.97;83.10;98639.35;1763603;80;20191;-70
2021/11/27 04:13:41;;;;;;;68.45;34.40;;;;;;;1.96;83.08;98638.09;1750323;80;21036;-70
2021/11/27 04:16:08;;;;;;;61.05;32.65;;;;;;;1.97;83.08;98638.08;1729068;80;20988;-70
2021/11/27 04:18:34;;;;;;;65.75;33.65;;;;;;;1.94;83.06;98639.39;1749305;81;22089;-70
2021/11/27 04:21:01;;;;;;;67.20;36.20;;;;;;;1.94;83.08;98641.94;1740276;80;21100;-70
2021/11/27 04:23:27;;;;;;;;;;;;;;;1.93;83.12;98641.53;1768450;80;21075;-70
2021/11/27 04:25:53;;;;;;;65.90;33.25;;;;;;;1.95;83.16;98645.33;1742807;80;20152;-70
2021/11/27 04:28:20;;;;;;;66.17;33.30;;;;;;;1.93;83.09;98641.53;1741888;80;20970;-70
2021/11/27 04:30:48;;;;;;;67.78;34.78;;;;;;;1.91;83.03;98643.25;1735929;80;21107;-70
2021/11/27 04:33:15;;;;;;;70.55;35.98;;;;;;;1.89;83.08;98646.25;1747810;80;21028;-71
2021/11/27 04:35:41;;;;;;;68.95;35.70;;;;;;;1.91;83.14;98644.95;1735536;80;21440;-70
2021/11/27 04:38:08;;;;;;;67.90;34.63;;;;;;;1.92;83.18;98637.29;1762200;80;20986;-71
2021/11/27 04:40:34;;;;;;;71.37;37.15;;;;;;;1.94;83.17;98644.48;1763711;80;21126;-71
2021/11/27 04:43:01;;;;;;;;;;;;;;;1.95;83.18;98641.51;1742562;80;21106;-71
2021/11/27 04:45:30;;;;;;;78.55;36.08;;;;;;;1.97;83.24;98647.42;1740833;80;20155;-71
2021/11/27 04:47:57;;;;;;;70.78;37.98;;;;;;;1.98;83.23;98641.47;1743419;80;20972;-71
2021/11/27 04:50:24;;;;;;;75.75;39.92;;;;;;;1.98;83.22;98644.02;1748935;80;20916;-71
2021/11/27 04:52:51;;;;;;;73.65;37.28;;;;;;;2.00;83.26;98635.92;1746034;80;21037;-71
2021/11/27 04:55:17;;;;;;;;;;;;;;;2.01;83.24;98643.13;1760943;80;21382;-71
2021/11/27 04:57:45;;;;;;;70.20;37.65;;;;;;;2.01;83.31;98642.70;1753554;80;20215;-71
2021/11/27 05:00:25;;;;;;;78.47;41.25;;;;;;;2.02;83.28;98648.21;1748572;80;21106;-71
2021/11/27 05:02:53;;;;;;;71.30;39.13;;;;;;;2.02;83.28;98644.39;1735475;80;21127;-71
2021/11/27 05:05:25;;;;;;;72.82;38.70;;;;;;;2.02;83.29;98645.66;1763614;80;21062;-71
2021/11/27 05:07:52;;;;;;;74.90;37.80;;;;;;;2.01;83.29;98647.80;1748150;80;21177;-71
2021/11/27 05:10:19;;;;;;;76.35;38.88;;;;;;;2.01;83.26;98654.17;1751213;80;20916;-71
2021/11/27 05:12:45;;;;;;;76.65;37.65;;;;;;;2.01;83.27;98659.27;1742573;80;20956;-71
2021/11/27 05:15:13;;;;;;;72.65;37.73;;;;;;;2.02;83.35;98657.56;1750059;80;20975;-71
2021/11/27 05:17:39;;;;;;;77.50;37.85;;;;;;;2.04;83.33;98659.66;1763994;80;21051;-71
2021/11/27 05:20:08;;;;;;;80.20;40.08;;;;;;;2.03;83.25;98663.08;1758430;80;25235;-71
2021/11/27 05:22:34;;;;;;;74.67;38.70;;;;;;;2.02;83.25;98662.66;1742223;80;20909;-71
2021/11/27 05:25:01;;;;;;;68.90;38.13;;;;;;;2.02;83.23;98669.03;1739009;80;21030;-71
2021/11/27 05:27:27;;;;;;;;;;;;;;;2.02;83.23;98670.31;1751405;80;20932;-71
2021/11/27 05:29:55;;;;;;;71.72;37.60;;;;;;;2.01;83.32;98672.02;1738790;80;20175;-71
2021/11/27 05:32:25;;;;;;;80.85;40.15;;;;;;;1.99;83.29;98666.94;1738846;80;21446;-71
2021/11/27 05:34:50;;;;;;;86.63;42.08;;;;;;;1.99;83.29;98673.73;1740525;80;21123;-71
2021/11/27 05:37:16;;;;;;;81.60;41.10;;;;;;;2.01;83.37;98677.11;1737719;81;21075;-71
2021/11/27 05:39:44;;;;;;;80.10;40.12;;;;;;;2.02;83.40;98671.58;1708748;81;21462;-71
2021/11/27 05:42:13;;;;;;;84.37;41.65;;;;;;;2.02;83.37;98674.97;1754319;81;21248;-71
2021/11/27 05:44:40;;;;;;;77.75;40.03;;;;;;;2.03;83.38;98675.81;1732021;81;20985;-71
2021/11/27 05:47:06;;;;;;;;;;;;;;;2.03;83.41;98679.64;1721965;81;21032;-71
2021/11/27 05:49:32;;;;;;;73.15;37.88;;;;;;;2.03;83.42;98679.21;1726349;81;20242;-71
2021/11/27 05:51:59;;;;;;;72.78;38.65;;;;;;;2.03;83.35;98682.19;1722353;81;21069;-71
2021/11/27 05:54:25;;;;;;;75.95;38.92;;;;;;;2.02;83.37;98685.60;1740271;81;21087;-71
2021/11/27 05:56:52;;;;;;;75.30;38.17;;;;;;;2.03;83.40;98686.02;1730423;81;21059;-71
2021/11/27 05:59:18;;;;;;;69.27;37.25;;;;;;;2.03;83.38;98688.56;1747366;81;22156;-71
2021/11/27 06:01:44;;;;;;;72.17;37.42;;;;;;;2.04;83.42;98695.34;1740716;81;21055;-71
2021/11/27 06:04:11;;;;;;;70.25;38.30;;;;;;;2.04;83.39;98694.07;1733324;81;21306;-71
2021/11/27 06:06:37;;;;;;;71.25;37.50;;;;;;;2.02;83.37;98691.97;1718621;80;21048;-71
2021/11/27 06:09:03;;;;;;;74.85;37.75;;;;;;;2.02;83.38;98696.64;1733508;81;22218;-71
2021/11/27 06:11:30;;;;;;;75.87;37.88;;;;;;;2.00;83.37;98702.19;1743711;81;21338;-71
2021/11/27 06:13:56;;;;;;;75.52;37.58;;;;;;;1.99;83.41;98696.25;1741563;81;21047;-70
2021/11/27 06:16:22;;;;;;;82.80;39.98;;;;;;;1.97;83.31;98697.13;1736252;81;21123;-70
2021/11/27 06:18:49;;;;;;;78.30;40.12;;;;;;;1.93;83.24;98699.30;1727898;81;27298;-71
2021/11/27 06:21:20;;;;;;;79.65;43.20;;;;;;;1.89;83.29;98701.05;1742151;81;21119;-71
2021/11/27 06:23:54;;;;;;;80.20;41.88;;;;;;;1.87;83.37;98704.04;1719414;81;21076;-71
2021/11/27 06:26:20;;;;;;;82.80;43.65;;;;;;;1.88;83.42;98703.61;1741889;81;21328;-71
2021/11/27 06:28:46;;;;;;;;;;;;;;;1.88;83.47;98704.45;1746575;81;20936;-71
2021/11/27 06:31:13;;;;;;;74.37;37.15;;;;;;;1.89;83.54;98709.12;1747200;81;20432;-71
2021/11/27 06:33:39;;;;;;;;;;;;;;;1.87;83.47;98707.86;1746764;81;20943;-71
2021/11/27 06:36:06;;;;;;;71.62;35.80;;;;;;;1.89;83.49;98716.77;1747713;81;20798;-71
2021/11/27 06:38:34;;;;;;;75.32;37.30;;;;;;;1.87;83.46;98717.20;1746079;81;20963;-71
2021/11/27 06:41:01;;;;;;;66.20;35.20;;;;;;;1.87;83.47;98719.33;1748295;81;20967;-71
2021/11/27 06:43:27;;;;;;;69.05;36.73;;;;;;;1.87;83.46;98723.58;1739700;81;20968;-70
2021/11/27 06:45:53;;;;;;;73.15;37.60;;;;;;;1.86;83.45;98721.89;1750747;81;21135;-70
2021/11/27 06:48:20;;;;;;;68.15;36.48;;;;;;;1.85;83.46;98724.88;1749446;81;21045;-70
2021/11/27 06:50:46;;;;;;;63.35;35.45;;;;;;;1.85;83.46;98731.24;1750257;81;25655;-71
2021/11/27 06:53:13;;;;;;;68.62;35.80;;;;;;;1.84;83.46;98735.92;1747530;81;21264;-71
2021/11/27 06:55:39;;;;;;;75.37;39.13;;;;;;;1.82;83.41;98735.09;1746888;81;21101;-71
2021/11/27 06:58:06;;;;;;;82.65;44.73;;;;;;;1.80;83.40;98738.52;1739950;81;21072;-70
2021/11/27 07:00:33;;;;;;;93.87;44.80;;;;;;;1.78;83.47;98744.06;1743777;80;20971;-70
2021/11/27 07:03:01;;;;;;;82.17;41.63;;;;;;;1.76;83.44;98745.36;1750414;81;21092;-71
2021/11/27 07:05:27;;;;;;;83.42;42.48;;;;;;;1.76;83.51;98742.80;1745338;81;21082;-71
2021/11/27 07:07:54;;;;;;;74.65;39.45;;;;;;;1.77;83.56;98748.31;1749712;81;21003;-71
2021/11/27 07:10:20;;;;;;;77.37;38.30;;;;;;;1.80;83.59;98752.11;1726747;81;21061;-71
2021/11/27 07:12:47;;;;;;;72.37;38.55;;;;;;;1.81;83.60;98753.80;1728827;81;25348;-71
2021/11/27 07:15:16;;;;;;;69.85;36.15;;;;;;;1.82;83.57;98752.09;1722303;81;21013;-71
2021/11/27 07:17:42;;;;;;;71.17;37.35;;;;;;;1.83;83.58;98755.05;1719485;81;21089;-73
2021/11/27 07:20:10;;;;;;;74.17;38.48;;;;;;;1.84;83.59;98760.13;1746283;81;21050;-74
2021/11/27 07:22:37;;;;;;;78.85;40.73;;;;;;;1.85;83.58;98763.09;1748941;81;21068;-74
2021/11/27 07:25:05;;;;;;;77.05;37.15;;;;;;;1.85;83.54;98763.09;1748876;81;21111;-73
2021/11/27 07:27:31;;;;;;;83.33;43.52;;;;;;;1.87;83.61;98764.36;1744998;81;21503;-73
2021/11/27 07:29:57;;;;;;;76.80;40.05;;;;;;;1.81;83.43;98748.70;1750777;81;27753;-71
2021/11/27 07:32:24;;;;;;;74.12;39.35;;;;;;;1.81;83.43;98748.70;1745650;80;21085;-71
2021/11/27 07:34:51;;;;;;;69.42;36.88;;;;;;;1.94;83.73;98771.08;1745938;81;21050;-71
2021/11/27 07:37:17;;;;;;;;;;;;;;;1.98;83.72;98767.63;1750580;81;21099;-71
2021/11/27 07:39:44;;;;;;;67.47;35.48;;;;;;;2.01;83.74;98762.93;1744966;81;20129;-71
2021/11/27 07:42:12;;;;;;;71.70;36.60;;;;;;;2.03;83.71;98758.66;1746450;81;20897;-71
2021/11/27 07:44:38;;;;;;;72.80;38.60;;;;;;;2.06;83.74;98768.82;1751257;81;20959;-71
2021/11/27 07:47:05;;;;;;;75.50;38.55;;;;;;;2.08;83.75;98765.36;1746341;81;20917;-71
2021/11/27 07:49:31;;;;;;;74.53;37.60;;;;;;;2.10;83.79;98763.64;1715045;83;20902;-71
2021/11/27 07:51:57;;;;;;;76.42;39.48;;;;;;;2.15;83.83;98768.69;1685216;83;20919;-71
2021/11/27 07:54:32;;;;;;;73.10;37.75;;;;;;;2.20;83.83;98771.59;1695599;84;20965;-71
2021/11/27 07:56:59;;;;;;;72.78;38.13;;;;;;;2.25;83.84;98771.54;1699314;82;21099;-73
2021/11/27 07:59:26;;;;;;;80.25;40.80;;;;;;;2.29;83.84;98770.64;1693558;82;21048;-73
2021/11/27 08:01:52;;;;;;;;;;;;;;;2.33;83.90;98773.56;1691068;83;21638;-73
2021/11/27 08:04:18;;;;;;;74.62;39.70;;;;;;;2.38;83.93;98782.00;1691661;82;26550;-73
2021/11/27 08:06:44;;;;;;;;;;;;;;;2.42;83.89;98781.53;1698684;83;20909;-73
2021/11/27 08:09:11;;;;;;;74.12;37.48;;;;;;;2.45;83.93;98781.50;1696873;82;20858;-73
2021/11/27 08:11:37;;;;;;;77.87;39.55;;;;;;;2.49;83.90;98785.70;1674951;82;615701;-73
2021/11/27 08:14:04;;;;;;;71.85;36.80;;;;;;;2.54;83.90;98788.60;1645022;86;20937;-72
2021/11/27 08:16:32;;;;;;;68.05;38.10;;;;;;;2.58;83.90;98788.13;1639479;86;20936;-73
2021/11/27 08:18:58;;;;;;;72.50;37.33;;;;;;;2.61;83.84;98786.78;1641350;86;20945;-73
2021/11/27 08:21:25;;;;;;;73.25;37.50;;;;;;;2.63;83.86;98784.62;1649946;86;20984;-73
2021/11/27 08:23:52;;;;;;;66.92;35.65;;;;;;;2.68;83.87;98793.92;1644843;86;21506;-73
2021/11/27 08:26:19;;;;;;;67.72;36.53;;;;;;;2.71;83.88;98788.78;1647726;86;21481;-73
2021/11/27 08:28:45;;;;;;;;;;;;;;;2.74;83.87;98795.12;1650219;86;20910;-73
2021/11/27 08:31:16;;;;;;;60.17;32.75;;;;;;;2.78;83.94;98795.05;1648774;86;20389;-73
2021/11/27 08:33:42;;;;;;;;;;;;;;;2.81;83.88;98796.72;1644647;86;20925;-72
2021/11/27 08:36:08;;;;;;;56.30;32.53;;;;;;;2.85;83.89;98800.92;1635849;86;20763;-71
2021/11/27 08:38:35;;;;;;;65.78;33.92;;;;;;;2.88;83.89;98802.16;1642349;86;20986;-72
2021/11/27 08:41:01;;;;;;;63.90;33.92;;;;;;;2.92;83.95;98795.70;1639298;86;26414;-71
2021/11/27 08:43:27;;;;;;;69.42;36.00;;;;;;;2.98;83.96;98803.27;1622500;86;21024;-71
2021/11/27 08:45:54;;;;;;;65.83;34.20;;;;;;;3.05;83.96;98800.20;1650527;86;28504;-71
2021/11/27 08:48:21;;;;;;;58.13;31.62;;;;;;;3.10;83.92;98807.36;1640952;86;21099;-72
2021/11/27 08:50:47;;;;;;;62.05;34.50;;;;;;;3.12;83.89;98800.48;1635955;86;21624;-72
2021/11/27 08:53:13;;;;;;;56.75;31.73;;;;;;;3.14;83.88;98802.59;1646532;86;21138;-72
2021/11/27 08:55:40;;;;;;;55.33;32.38;;;;;;;3.17;83.88;98804.25;1648732;86;21052;-71
2021/11/27 08:58:06;;;;;;;64.17;32.70;;;;;;;3.17;83.85;98807.65;1639674;86;21075;-71
2021/11/27 09:00:33;;;;;;;61.45;33.25;;;;;;;3.20;83.84;98810.59;1638270;86;21059;-72
2021/11/27 09:02:59;;;;;;;67.78;35.23;;;;;;;3.22;83.86;98812.25;1652104;86;28249;-71
2021/11/27 09:05:26;;;;;;;57.90;32.95;;;;;;;3.24;83.86;98813.07;1649220;86;21119;-71
2021/11/27 09:07:52;;;;;;;;;;;;;;;3.28;83.91;98821.09;1645580;86;21096;-72
2021/11/27 09:10:20;;;;;;;56.88;30.57;;;;;;;3.32;83.89;98825.73;1644269;85;20334;-72
2021/11/27 09:12:47;;;;;;;61.53;32.67;;;;;;;3.32;83.89;98827.00;1647852;86;20933;-72
2021/11/27 09:15:13;;;;;;;62.83;33.85;;;;;;;3.31;83.80;98828.72;1655802;86;20992;-72
2021/11/27 09:17:40;;;;;;;63.48;33.05;;;;;;;3.31;83.83;98841.48;1643085;86;20944;-72
2021/11/27 09:20:07;;;;;;;59.85;32.23;;;;;;;3.32;83.86;98834.67;1650607;86;21531;-72
2021/11/27 09:22:33;;;;;;;61.30;33.40;;;;;;;3.33;83.87;98832.09;1646256;86;20941;-72
2021/11/27 09:25:00;;;;;;;64.45;33.33;;;;;;;3.34;83.83;98838.05;1651115;86;21416;-72
2021/11/27 09:27:26;;;;;;;69.58;35.65;;;;;;;3.36;83.80;98836.74;1637726;86;20985;-71
2021/11/27 09:29:53;;;;;;;62.40;34.60;;;;;;;3.35;83.78;98828.23;1645385;86;45680;-72
2021/11/27 09:32:20;;;;;;;73.75;33.58;;;;;;;3.37;83.83;98832.05;1638996;86;20940;-72
2021/11/27 09:34:46;;;;;;;65.80;34.13;;;;;;;3.38;83.84;98828.19;1647340;86;20936;-72
2021/11/27 09:37:14;;;;;;;71.97;35.40;;;;;;;3.44;83.89;98834.91;1646355;86;21486;-72
2021/11/27 09:39:42;;;;;;;64.87;35.28;;;;;;;3.49;83.91;98835.69;1644663;86;20951;-72
2021/11/27 09:42:17;;;;;;;66.57;36.48;;;;;;;3.55;83.87;98843.25;1654705;86;22072;-71
2021/11/27 09:44:51;;;;;;;69.87;34.92;;;;;;;3.59;83.89;98842.34;1639826;86;21308;-69
2021/11/27 09:47:18;;;;;;;67.53;35.15;;;;;;;3.63;83.87;98840.98;1644433;86;20961;-74
2021/11/27 09:49:47;;;;;;;64.05;35.17;;;;;;;3.67;83.89;98841.75;1642060;85;21007;-74
2021/11/27 09:52:14;;;;;;;62.75;34.48;;;;;;;3.70;83.85;98844.25;1633410;86;21576;-74
2021/11/27 09:54:41;;;;;;;61.75;33.83;;;;;;;3.71;83.77;98848.49;1639440;86;21059;-78
2021/11/27 09:57:09;;;;;;;;;;;;;;;3.68;83.71;98843.43;1649418;86;21158;-75
2021/11/27 09:59:39;;;;;;;63.58;33.90;;;;;;;3.70;83.72;98842.97;1640301;85;21089;-72
2021/11/27 10:02:11;;;;;;;63.40;32.50;;;;;;;3.69;83.71;98840.01;1628142;86;21441;-71
2021/11/27 10:04:42;;;;;;;64.72;32.53;;;;;;;3.69;83.75;98842.56;1641411;86;21509;-72
2021/11/27 10:07:12;;;;;;;53.75;31.95;;;;;;;3.70;83.78;98845.53;1640831;86;21832;-71
2021/11/27 10:09:39;;;;;;;55.08;31.65;;;;;;;3.72;83.76;98842.95;1636555;86;21412;-72
2021/11/27 10:12:08;;;;;;;54.50;32.15;;;;;;;3.73;83.78;98849.75;1634366;86;21877;-71
2021/11/27 10:14:39;;;;;;;60.73;30.45;;;;;;;3.73;83.72;98851.87;1635822;86;21418;-79
2021/11/27 10:17:10;;;;;;;61.45;31.42;;;;;;;3.70;83.68;98855.75;1641499;86;21015;-75
2021/11/27 10:19:47;;;;;;;53.52;28.90;;;;;;;3.69;83.68;98854.06;1643563;86;21646;-76
2021/11/27 10:22:25;;;;;;;50.95;28.98;;;;;;;3.71;83.71;98856.16;1630207;85;20931;-75
2021/11/27 10:24:53;;;;;;;54.73;29.98;;;;;;;3.73;83.71;98855.70;1639516;86;21705;-75
2021/11/27 10:30:07;;;;;;;68.03;34.43;;;;;;;3.78;83.68;98856.47;1868276;75;21970;-73
2021/11/27 10:32:43;;;;;;;59.00;32.50;;;;;;;3.76;83.71;98861.20;1806638;77;20937;-73
2021/11/27 10:35:17;;;;;;;53.85;28.57;;;;;;;3.75;83.62;98860.36;1822055;78;21807;-73
2021/11/27 10:37:48;;;;;;;55.63;30.37;;;;;;;3.71;83.59;98861.27;1821130;76;20865;-73
2021/11/27 10:40:26;;;;;;;56.13;30.20;;;;;;;3.68;83.55;98871.98;1824979;76;21351;-73
2021/11/27 10:42:56;;;;;;;56.37;30.25;;;;;;;3.68;83.64;98867.71;1815213;78;21015;-75
2021/11/27 10:45:26;;;;;;;68.57;33.00;;;;;;;3.68;83.58;98864.31;1804924;78;20965;-76
2021/11/27 10:48:10;;;;;;;65.10;32.40;;;;;;;3.65;83.60;98865.20;1820610;77;20910;-75
2021/11/27 10:50:55;;;;;;;66.40;33.30;;;;;;;3.68;83.72;98863.88;1821804;78;20921;-75
2021/11/27 10:53:31;;;;;;;68.73;36.20;;;;;;;3.73;83.73;98862.09;1813512;77;20913;-75
2021/11/27 10:56:10;;;;;;;70.75;35.63;;;;;;;3.78;83.69;98856.91;1823847;77;21405;-73
2021/11/27 10:59:02;;;;;;;60.85;36.93;;;;;;;3.83;83.69;98861.50;1815701;78;21508;-74
2021/11/27 11:01:29;;;;;;;67.55;33.58;;;;;;;3.86;83.62;98864.86;1814173;78;20890;-74
2021/11/27 11:03:55;;;;;;;68.05;32.65;;;;;;;3.89;83.57;98862.68;1812449;78;21514;-73
2021/11/27 11:06:25;;;;;;;65.20;32.90;;;;;;;3.88;83.47;98861.84;1811657;78;20897;-73
2021/11/27 11:08:54;;;;;;;71.62;35.38;;;;;;;3.88;83.48;98860.56;1808254;78;21472;-73
2021/11/27 11:11:24;;;;;;;68.60;33.42;;;;;;;3.91;83.47;98854.55;1813452;78;20897;-73
2021/11/27 11:13:58;;;;;;;64.37;32.05;;;;;;;3.91;83.51;98846.88;1810267;78;20893;-73
2021/11/27 11:16:33;;;;;;;53.33;29.07;;;;;;;3.94;83.56;98853.22;1815491;78;21776;-73
2021/11/27 11:19:18;;;;;;;47.10;25.72;;;;;;;3.97;83.56;98845.49;1811997;78;20914;-73
2021/11/27 11:22:10;;;;;;;52.83;27.55;;;;;;;3.94;83.40;98855.34;1812079;78;20862;-73
2021/11/27 11:24:44;;;;;;;58.30;30.40;;;;;;;3.87;83.23;98856.31;1809901;78;21433;-73
2021/11/27 11:27:30;;;;;;;59.57;29.90;;;;;;;3.84;83.31;98850.41;1799704;78;20850;-73
2021/11/27 11:29:56;;;;;;;57.73;30.85;;;;;;;3.79;83.25;98853.05;1803959;78;20897;-72
2021/11/27 11:32:29;;;;;;;68.15;33.25;;;;;;;3.75;83.26;98854.40;1794734;78;20874;-71
2021/11/27 11:35:04;;;;;;;70.17;33.90;;;;;;;3.70;83.24;98856.19;1828015;77;20988;-74
2021/11/27 11:37:30;;;;;;;64.42;33.65;;;;;;;3.66;83.31;98853.68;1796906;78;20952;-74
2021/11/27 11:39:57;;;;;;;69.40;33.63;;;;;;;3.64;83.35;98854.14;1803084;78;23862;-74